createdAt,value
2022-07-25T00:01:54.692Z,22.31
2022-07-25T00:04:23.689Z,22.27
2022-07-25T00:06:50.498Z,22.30
2022-07-25T00:09:17.533Z,22.27
2022-07-25T00:11:44.882Z,22.31
2022-07-25T00:14:11.762Z,22.35
2022-07-25T00:16:38.765Z,22.40
2022-07-25T00:19:06.306Z,22.42
2022-07-25T00:21:33.374Z,22.39
2022-07-25T00:24:00.329Z,22.41
2022-07-25T00:26:27.123Z,22.33
2022-07-25T00:28:54.127Z,22.19
2022-07-25T00:31:20.922Z,22.18
2022-07-25T00:33:47.723Z,22.06
2022-07-25T00:36:14.462Z,22.07
2022-07-25T00:38:41.279Z,22.06
2022-07-25T00:41:08.057Z,22.09
2022-07-25T00:43:34.816Z,22.10
2022-07-25T00:46:01.697Z,22.05
2022-07-25T00:48:28.897Z,22.08
2022-07-25T00:50:56.747Z,22.09
2022-07-25T00:53:24.315Z,22.05
2022-07-25T00:55:51.782Z,21.95
2022-07-25T00:58:18.954Z,21.95
2022-07-25T01:00:46.643Z,21.87
2022-07-25T01:03:13.612Z,21.89
2022-07-25T01:05:40.809Z,21.86
2022-07-25T01:08:08.244Z,21.89
2022-07-25T01:10:35.881Z,21.88
2022-07-25T01:13:02.732Z,21.78
2022-07-25T01:15:30.015Z,21.71
2022-07-25T01:17:57.000Z,21.72
2022-07-25T01:20:26.486Z,21.64
2022-07-25T01:22:53.844Z,21.63
2022-07-25T01:25:21.691Z,21.56
2022-07-25T01:27:54.433Z,21.45
2022-07-25T01:30:23.486Z,21.44
2022-07-25T01:32:50.681Z,21.41
2022-07-25T01:35:17.584Z,21.36
2022-07-25T01:37:45.989Z,21.33
2022-07-25T01:40:14.554Z,21.28
2022-07-25T01:42:42.559Z,21.19
2022-07-25T01:45:11.159Z,21.12
2022-07-25T01:47:38.032Z,21.08
2022-07-25T01:50:05.535Z,21.01
2022-07-25T01:52:32.437Z,20.94
2022-07-25T01:54:59.450Z,20.86
2022-07-25T01:57:30.801Z,20.88
2022-07-25T01:59:58.564Z,20.78
2022-07-25T02:02:25.496Z,20.71
2022-07-25T02:04:52.902Z,20.65
2022-07-25T02:07:19.768Z,20.62
2022-07-25T02:09:46.595Z,20.57
2022-07-25T02:12:13.441Z,20.50
2022-07-25T02:14:40.857Z,20.47
2022-07-25T02:17:08.181Z,20.49
2022-07-25T02:19:35.844Z,20.49
2022-07-25T02:22:03.079Z,20.44
2022-07-25T02:24:29.924Z,20.28
2022-07-25T02:26:56.659Z,20.15
2022-07-25T02:29:24.374Z,20.18
2022-07-25T02:31:52.993Z,20.18
2022-07-25T02:34:20.924Z,20.14
2022-07-25T02:36:47.941Z,20.07
2022-07-25T02:39:14.758Z,20.12
2022-07-25T02:41:41.524Z,20.23
2022-07-25T02:44:08.587Z,20.30
2022-07-25T02:46:35.874Z,20.38
2022-07-25T02:49:02.947Z,20.38
2022-07-25T02:51:29.929Z,20.39
2022-07-25T02:54:09.508Z,20.39
2022-07-25T02:56:36.387Z,20.41
2022-07-25T02:59:03.238Z,20.43
2022-07-25T03:01:30.192Z,20.39
2022-07-25T03:03:57.205Z,20.39
2022-07-25T03:06:24.049Z,20.42
2022-07-25T03:08:50.814Z,20.47
2022-07-25T03:11:18.400Z,20.50
2022-07-25T03:13:45.179Z,20.55
2022-07-25T03:16:11.984Z,20.53
2022-07-25T03:18:38.820Z,20.48
2022-07-25T03:21:05.938Z,20.45
2022-07-25T03:23:33.497Z,20.47
2022-07-25T03:26:00.365Z,20.47
2022-07-25T03:28:27.160Z,20.44
2022-07-25T03:30:54.043Z,20.48
2022-07-25T03:33:20.839Z,20.48
2022-07-25T03:35:47.619Z,20.47
2022-07-25T03:38:14.429Z,20.44
2022-07-25T03:40:41.316Z,20.41
2022-07-25T03:43:08.109Z,20.38
2022-07-25T03:45:35.122Z,20.31
2022-07-25T03:48:02.156Z,20.33
2022-07-25T03:50:28.974Z,20.34
2022-07-25T03:52:56.079Z,20.39
2022-07-25T03:55:22.913Z,20.44
2022-07-25T03:57:49.750Z,20.47
2022-07-25T04:00:17.643Z,20.51
2022-07-25T04:02:44.507Z,20.58
2022-07-25T04:05:11.654Z,20.62
2022-07-25T04:07:38.816Z,20.71
2022-07-25T04:10:06.738Z,20.79
2022-07-25T04:12:33.979Z,21.04
2022-07-25T04:15:01.260Z,21.11
2022-07-25T04:17:28.051Z,21.18
2022-07-25T04:19:54.951Z,21.24
2022-07-25T04:22:22.321Z,21.25
2022-07-25T04:24:49.228Z,21.32
2022-07-25T04:27:16.010Z,21.30
2022-07-25T04:29:42.896Z,21.24
2022-07-25T04:32:09.821Z,21.20
2022-07-25T04:34:36.609Z,21.22
2022-07-25T04:37:03.440Z,21.25
2022-07-25T04:39:30.214Z,21.35
2022-07-25T04:41:57.180Z,21.38
2022-07-25T04:44:24.459Z,21.45
2022-07-25T04:46:51.462Z,21.49
2022-07-25T04:49:18.391Z,21.55
2022-07-25T04:51:45.286Z,21.61
2022-07-25T04:54:12.117Z,21.64
2022-07-25T04:56:38.905Z,21.67
2022-07-25T04:59:06.581Z,21.57
2022-07-25T05:01:34.363Z,21.56
2022-07-25T05:04:01.257Z,21.58
2022-07-25T05:06:28.091Z,21.68
2022-07-25T05:08:55.479Z,21.63
2022-07-25T05:11:22.481Z,21.67
2022-07-25T05:13:49.297Z,21.78
2022-07-25T05:16:16.412Z,21.84
2022-07-25T05:18:43.292Z,21.88
2022-07-25T05:21:12.300Z,21.88
2022-07-25T05:23:39.453Z,21.98
2022-07-25T05:26:06.344Z,22.11
2022-07-25T05:28:33.131Z,22.12
2022-07-25T05:30:59.883Z,22.21
2022-07-25T05:33:26.880Z,22.41
2022-07-25T05:35:53.781Z,22.65
2022-07-25T05:38:20.764Z,22.84
2022-07-25T05:40:48.225Z,23.01
2022-07-25T05:43:15.133Z,23.15
2022-07-25T05:45:42.522Z,23.04
2022-07-25T05:48:09.436Z,23.02
2022-07-25T05:50:39.723Z,23.12
2022-07-25T05:53:06.945Z,23.16
2022-07-25T05:55:33.902Z,23.22
2022-07-25T05:58:02.437Z,23.19
2022-07-25T06:00:29.776Z,23.34
2022-07-25T06:03:00.501Z,23.49
2022-07-25T06:05:27.560Z,23.42
2022-07-25T06:07:54.582Z,23.52
2022-07-25T06:10:22.063Z,23.61
2022-07-25T06:12:49.985Z,23.85
2022-07-25T06:15:22.149Z,24.03
2022-07-25T06:17:49.930Z,24.11
2022-07-25T06:20:17.005Z,24.26
2022-07-25T06:22:43.870Z,24.30
2022-07-25T06:25:10.954Z,24.26
2022-07-25T06:27:38.781Z,24.40
2022-07-25T06:30:18.721Z,24.31
2022-07-25T06:32:47.826Z,24.35
2022-07-25T06:35:14.630Z,24.52
2022-07-25T06:37:41.606Z,24.63
2022-07-25T06:40:09.353Z,24.69
2022-07-25T06:42:44.350Z,24.83
2022-07-25T06:45:12.212Z,25.53
2022-07-25T06:47:40.588Z,26.03
2022-07-25T06:50:11.288Z,26.36
2022-07-25T06:52:39.052Z,26.54
2022-07-25T06:55:07.808Z,26.67
2022-07-25T06:57:35.459Z,27.34
2022-07-25T07:00:06.769Z,28.03
2022-07-25T07:02:33.763Z,29.06
2022-07-25T07:05:00.570Z,29.39
2022-07-25T07:07:27.702Z,28.80
2022-07-25T07:09:54.472Z,28.44
2022-07-25T07:12:22.159Z,28.46
2022-07-25T07:14:49.077Z,28.33
2022-07-25T07:17:15.826Z,28.12
2022-07-25T07:19:45.792Z,27.69
2022-07-25T07:22:12.567Z,27.05
2022-07-25T07:24:44.317Z,26.65
2022-07-25T07:27:11.975Z,26.37
2022-07-25T07:29:38.756Z,26.20
2022-07-25T07:32:07.035Z,26.15
2022-07-25T07:34:34.036Z,26.55
2022-07-25T07:37:00.872Z,26.93
2022-07-25T07:39:27.678Z,27.29
2022-07-25T07:41:54.457Z,28.14
2022-07-25T07:44:21.313Z,28.80
2022-07-25T07:46:48.993Z,28.47
2022-07-25T07:49:16.019Z,28.65
2022-07-25T07:51:43.012Z,28.94
2022-07-25T07:54:28.448Z,28.90
2022-07-25T07:56:55.239Z,29.06
2022-07-25T07:59:22.059Z,28.84
2022-07-25T08:01:49.012Z,28.62
2022-07-25T08:04:16.293Z,28.26
2022-07-25T08:06:43.243Z,28.11
2022-07-25T08:09:10.336Z,27.99
2022-07-25T08:11:37.281Z,27.92
2022-07-25T08:14:05.480Z,27.66
2022-07-25T08:16:33.421Z,27.49
2022-07-25T08:19:00.469Z,27.43
2022-07-25T08:21:27.331Z,27.33
2022-07-25T08:23:54.423Z,27.49
2022-07-25T08:26:21.203Z,27.58
2022-07-25T08:28:52.546Z,27.58
2022-07-25T08:31:27.301Z,27.56
2022-07-25T08:33:54.158Z,27.69
2022-07-25T08:36:20.923Z,27.77
2022-07-25T08:38:47.822Z,27.87
2022-07-25T08:41:14.608Z,28.12
2022-07-25T08:43:43.109Z,27.92
2022-07-25T08:46:10.302Z,27.56
2022-07-25T08:48:39.046Z,26.98
2022-07-25T08:51:07.325Z,26.54
2022-07-25T08:53:36.254Z,26.23
2022-07-25T08:56:16.032Z,25.79
2022-07-25T08:58:45.749Z,25.49
2022-07-25T09:01:13.905Z,25.18
2022-07-25T09:03:42.970Z,24.87
2022-07-25T09:06:20.766Z,24.73
2022-07-25T09:08:59.496Z,24.57
2022-07-25T09:11:34.607Z,24.38
2022-07-25T09:14:11.079Z,24.48
2022-07-25T09:16:44.241Z,24.71
2022-07-25T09:19:12.956Z,24.97
2022-07-25T09:21:41.086Z,25.13
2022-07-25T09:24:16.966Z,25.28
2022-07-25T09:26:53.426Z,25.57
2022-07-25T09:29:24.878Z,25.72
2022-07-25T09:31:53.236Z,26.00
2022-07-25T09:34:50.656Z,26.28
2022-07-25T09:37:19.538Z,26.30
2022-07-25T09:39:49.337Z,26.35
2022-07-25T09:42:22.237Z,26.51
2022-07-25T09:45:11.365Z,26.75
2022-07-25T09:47:55.960Z,26.75
2022-07-25T09:50:24.529Z,26.92
2022-07-25T09:52:53.333Z,27.21
2022-07-25T09:55:21.304Z,27.21
2022-07-25T09:57:49.718Z,27.05
2022-07-25T10:00:24.048Z,27.46
2022-07-25T10:03:02.344Z,28.92
2022-07-25T10:05:49.711Z,29.55
2022-07-25T10:08:18.358Z,29.63
2022-07-25T10:10:45.361Z,29.48
2022-07-25T10:13:15.570Z,29.78
2022-07-25T10:15:51.099Z,30.29
2022-07-25T10:18:21.214Z,30.98
2022-07-25T10:20:50.856Z,30.34
2022-07-25T10:23:28.291Z,29.51
2022-07-25T10:26:04.038Z,28.85
2022-07-25T10:28:45.943Z,28.04
2022-07-25T10:31:22.246Z,27.04
2022-07-25T10:34:01.908Z,26.37
2022-07-25T10:36:42.304Z,25.81
2022-07-25T10:39:11.906Z,25.51
2022-07-25T10:41:40.677Z,25.33
2022-07-25T10:44:13.350Z,24.85
2022-07-25T10:46:41.007Z,24.60
2022-07-25T10:49:15.821Z,24.44
2022-07-25T10:51:55.064Z,24.15
2022-07-25T10:54:22.474Z,23.89
2022-07-25T10:56:57.814Z,23.20
2022-07-25T10:59:37.871Z,22.40
2022-07-25T11:02:06.975Z,22.09
2022-07-25T11:04:34.444Z,22.00
2022-07-25T11:07:09.701Z,21.88
2022-07-25T11:09:37.168Z,22.24
2022-07-25T11:12:04.383Z,22.82
2022-07-25T11:14:34.389Z,23.33
2022-07-25T11:17:18.674Z,23.89
2022-07-25T11:20:05.002Z,24.48
2022-07-25T11:22:33.160Z,24.96
2022-07-25T11:25:01.066Z,25.43
2022-07-25T11:27:30.975Z,25.65
2022-07-25T11:30:14.603Z,25.50
2022-07-25T11:32:47.329Z,25.56
2022-07-25T11:35:15.100Z,25.50
2022-07-25T11:37:47.792Z,25.67
2022-07-25T11:40:16.488Z,25.80
2022-07-25T11:42:49.523Z,26.15
2022-07-25T11:45:21.757Z,26.87
2022-07-25T11:48:10.063Z,27.29
2022-07-25T11:50:39.535Z,27.48
2022-07-25T11:53:09.837Z,27.10
2022-07-25T11:55:42.834Z,27.34
2022-07-25T11:58:11.583Z,27.58
2022-07-25T12:00:45.142Z,27.71
2022-07-25T12:03:20.299Z,27.32
2022-07-25T12:05:49.481Z,26.52
2022-07-25T12:08:18.910Z,25.95
2022-07-25T12:10:54.964Z,25.94
2022-07-25T12:13:26.943Z,25.72
2022-07-25T12:15:55.728Z,25.48
2022-07-25T12:18:22.662Z,25.86
2022-07-25T12:20:49.461Z,25.81
2022-07-25T12:23:16.275Z,25.74
2022-07-25T12:25:45.270Z,25.62
2022-07-25T12:28:12.715Z,25.37
2022-07-25T12:30:41.517Z,25.02
2022-07-25T12:33:09.515Z,24.53
2022-07-25T12:35:39.178Z,24.86
2022-07-25T12:38:06.082Z,26.94
2022-07-25T12:40:33.273Z,28.61
2022-07-25T12:43:01.142Z,29.19
2022-07-25T12:45:28.468Z,28.14
2022-07-25T12:47:56.155Z,27.36
2022-07-25T12:50:25.803Z,27.52
2022-07-25T12:52:53.037Z,27.10
2022-07-25T12:55:20.758Z,26.71
2022-07-25T12:57:49.415Z,26.25
2022-07-25T13:00:19.108Z,26.09
2022-07-25T13:02:46.132Z,25.64
2022-07-25T13:05:12.996Z,25.09
2022-07-25T13:07:39.945Z,24.84
2022-07-25T13:10:07.529Z,25.03
2022-07-25T13:12:35.366Z,25.70
2022-07-25T13:15:02.435Z,26.21
2022-07-25T13:17:29.278Z,26.06
2022-07-25T13:19:56.966Z,26.06
2022-07-25T13:22:24.711Z,25.97
2022-07-25T13:24:52.599Z,25.31
2022-07-25T13:27:20.930Z,24.77
2022-07-25T13:29:53.877Z,24.02
2022-07-25T13:32:21.313Z,23.76
2022-07-25T13:34:48.193Z,23.38
2022-07-25T13:37:15.153Z,23.12
2022-07-25T13:39:42.341Z,23.28
2022-07-25T13:42:09.596Z,23.60
2022-07-25T13:44:36.616Z,24.06
2022-07-25T13:47:03.862Z,25.14
2022-07-25T13:49:31.726Z,25.98
2022-07-25T13:51:58.556Z,29.52
2022-07-25T13:54:25.428Z,30.31
2022-07-25T13:56:52.253Z,29.96
2022-07-25T13:59:21.750Z,28.83
2022-07-25T14:01:50.717Z,28.58
2022-07-25T14:04:18.231Z,28.26
2022-07-25T14:06:45.213Z,26.90
2022-07-25T14:09:12.085Z,26.00
2022-07-25T14:11:38.871Z,25.72
2022-07-25T14:14:05.676Z,25.44
2022-07-25T14:16:33.881Z,25.10
2022-07-25T14:19:00.981Z,25.20
2022-07-25T14:21:27.869Z,25.59
2022-07-25T14:23:54.817Z,26.04
2022-07-25T14:26:21.933Z,26.26
2022-07-25T14:28:48.788Z,26.26
2022-07-25T14:31:15.818Z,27.29
2022-07-25T14:33:42.798Z,28.46
2022-07-25T14:36:10.122Z,30.88
2022-07-25T14:38:37.257Z,31.47
2022-07-25T14:41:12.082Z,30.70
2022-07-25T14:43:40.510Z,30.46
2022-07-25T14:46:08.266Z,31.01
2022-07-25T14:48:37.277Z,30.56
2022-07-25T14:51:04.705Z,31.19
2022-07-25T14:53:33.225Z,29.13
2022-07-25T14:56:00.962Z,30.35
2022-07-25T14:58:27.876Z,31.50
2022-07-25T15:00:54.791Z,30.12
2022-07-25T15:03:21.723Z,29.72
2022-07-25T15:05:48.591Z,28.07
2022-07-25T15:08:16.360Z,27.98
2022-07-25T15:10:43.359Z,27.69
2022-07-25T15:15:57.616Z,27.53
2022-07-25T15:18:24.492Z,27.22
2022-07-25T15:20:51.998Z,28.43
2022-07-25T15:23:20.883Z,27.53
2022-07-25T15:26:04.460Z,26.43
2022-07-25T15:28:36.927Z,27.47
2022-07-25T15:31:04.876Z,28.82
2022-07-25T15:33:32.138Z,26.65
2022-07-25T15:35:59.193Z,25.56
2022-07-25T15:38:26.127Z,25.04
2022-07-25T15:40:53.010Z,24.68
2022-07-25T15:43:19.827Z,24.37
2022-07-25T15:45:46.968Z,24.09
2022-07-25T15:48:16.266Z,23.95
2022-07-25T15:50:46.769Z,23.71
2022-07-25T15:53:14.094Z,24.32
2022-07-25T15:55:41.803Z,24.97
2022-07-25T15:58:10.092Z,25.07
2022-07-25T16:00:38.606Z,25.03
2022-07-25T16:03:06.970Z,25.28
2022-07-25T16:05:34.039Z,25.47
2022-07-25T16:08:01.774Z,25.34
2022-07-25T16:10:29.933Z,24.55
2022-07-25T16:12:56.679Z,23.82
2022-07-25T16:15:23.599Z,23.64
2022-07-25T16:17:53.027Z,23.35
2022-07-25T16:20:20.149Z,23.24
2022-07-25T16:22:49.031Z,23.37
2022-07-25T16:25:16.145Z,23.26
2022-07-25T16:27:42.993Z,23.28
2022-07-25T16:30:10.188Z,23.41
2022-07-25T16:32:36.997Z,23.37
2022-07-25T16:35:04.038Z,23.37
2022-07-25T16:37:30.958Z,23.88
2022-07-25T16:39:57.735Z,23.97
2022-07-25T16:42:24.809Z,23.58
2022-07-25T16:44:52.065Z,23.25
2022-07-25T16:47:18.827Z,23.31
2022-07-25T16:49:45.612Z,23.20
2022-07-25T16:52:12.385Z,22.89
2022-07-25T16:54:41.166Z,22.58
2022-07-25T16:57:09.067Z,22.52
2022-07-25T16:59:36.185Z,22.31
2022-07-25T17:02:03.961Z,22.25
2022-07-25T17:04:30.892Z,22.22
2022-07-25T17:06:57.999Z,22.10
2022-07-25T17:09:25.257Z,22.06
2022-07-25T17:11:52.291Z,22.00
2022-07-25T17:14:19.128Z,22.04
2022-07-25T17:16:46.229Z,22.25
2022-07-25T17:19:13.125Z,22.46
2022-07-25T17:21:39.887Z,22.52
2022-07-25T17:24:09.468Z,22.33
2022-07-25T17:26:36.322Z,22.22
2022-07-25T17:29:07.074Z,22.15
2022-07-25T17:31:34.971Z,21.90
2022-07-25T17:34:01.930Z,21.71
2022-07-25T17:36:28.811Z,21.59
2022-07-25T17:38:55.730Z,21.51
2022-07-25T17:41:22.534Z,21.45
2022-07-25T17:43:49.354Z,21.30
2022-07-25T17:46:16.246Z,21.29
2022-07-25T17:48:43.161Z,21.21
2022-07-25T17:51:10.021Z,21.34
2022-07-25T17:53:36.931Z,21.33
2022-07-25T17:56:04.435Z,21.22
2022-07-25T17:58:32.169Z,21.25
2022-07-25T18:01:01.401Z,21.11
2022-07-25T18:03:29.180Z,21.11
2022-07-25T18:05:56.373Z,21.16
2022-07-25T18:08:23.228Z,21.16
2022-07-25T18:10:50.391Z,21.08
2022-07-25T18:13:18.069Z,21.08
2022-07-25T18:15:46.047Z,21.07
2022-07-25T18:18:17.019Z,21.02
2022-07-25T18:20:47.030Z,20.99
2022-07-25T18:23:14.119Z,20.98
2022-07-25T18:25:40.998Z,20.92
2022-07-25T18:28:07.799Z,20.84
2022-07-25T18:30:34.885Z,20.77
2022-07-25T18:33:01.762Z,20.74
2022-07-25T18:35:28.814Z,20.68
2022-07-25T18:37:55.787Z,20.66
2022-07-25T18:40:22.743Z,20.63
2022-07-25T18:42:49.571Z,20.61
2022-07-25T18:45:16.430Z,20.57
2022-07-25T18:47:43.805Z,20.52
2022-07-25T18:50:11.369Z,20.47
2022-07-25T18:52:38.369Z,20.44
2022-07-25T18:55:07.767Z,20.36
2022-07-25T18:57:34.871Z,20.32
2022-07-25T19:00:03.447Z,20.31
2022-07-25T19:02:30.756Z,20.19
2022-07-25T19:04:57.553Z,20.25
2022-07-25T19:07:24.422Z,20.25
2022-07-25T19:09:51.333Z,20.20
2022-07-25T19:12:18.154Z,20.11
2022-07-25T19:14:44.937Z,20.07
2022-07-25T19:17:11.927Z,20.05
2022-07-25T19:19:38.810Z,20.05
2022-07-25T19:22:05.608Z,20.02
2022-07-25T19:24:32.465Z,19.96
2022-07-25T19:26:59.270Z,19.96
2022-07-25T19:29:26.913Z,19.92
2022-07-25T19:31:53.804Z,19.91
2022-07-25T19:34:20.701Z,19.89
2022-07-25T19:36:47.548Z,19.87
2022-07-25T19:39:15.014Z,19.82
2022-07-25T19:41:46.693Z,19.84
2022-07-25T19:44:14.305Z,19.85
2022-07-25T19:46:41.176Z,19.81
2022-07-25T19:49:08.403Z,19.76
2022-07-25T19:51:35.387Z,19.73
2022-07-25T19:54:03.610Z,19.72
2022-07-25T19:56:31.393Z,19.65
2022-07-25T19:58:58.234Z,19.57
2022-07-25T20:01:25.132Z,19.49
2022-07-25T20:03:52.025Z,19.37
2022-07-25T20:06:20.664Z,19.31
2022-07-25T20:08:47.938Z,19.18
2022-07-25T20:11:15.945Z,19.11
2022-07-25T20:13:42.749Z,19.04
2022-07-25T20:16:09.879Z,19.02
2022-07-25T20:18:36.842Z,19.01
2022-07-25T20:21:03.885Z,19.00
2022-07-25T20:23:30.791Z,18.99
2022-07-25T20:25:58.120Z,18.94
2022-07-25T20:28:24.988Z,18.87
2022-07-25T20:30:52.167Z,18.80
2022-07-25T20:33:19.199Z,18.77
2022-07-25T20:35:46.758Z,18.69
2022-07-25T20:38:13.526Z,18.61
2022-07-25T20:40:48.175Z,18.58
2022-07-25T20:43:16.296Z,18.53
2022-07-25T20:45:43.540Z,18.48
2022-07-25T20:48:10.503Z,18.43
2022-07-25T20:50:37.903Z,18.34
2022-07-25T20:53:06.466Z,18.28
2022-07-25T20:55:33.844Z,18.23
2022-07-25T20:58:01.147Z,18.23
2022-07-25T21:00:30.429Z,18.18
2022-07-25T21:02:59.291Z,18.11
2022-07-25T21:05:26.887Z,18.06
2022-07-25T21:07:53.839Z,18.07
2022-07-25T21:10:20.823Z,18.04
2022-07-25T21:12:47.909Z,18.00
2022-07-25T21:15:15.448Z,17.94
2022-07-25T21:17:42.391Z,17.91
2022-07-25T21:20:12.157Z,17.86
2022-07-25T21:22:39.772Z,17.82
2022-07-25T21:25:07.148Z,17.74
2022-07-25T21:27:34.136Z,17.67
2022-07-25T21:30:01.094Z,17.62
2022-07-25T21:32:27.984Z,17.56
2022-07-25T21:34:54.891Z,17.49
2022-07-25T21:37:21.768Z,17.47
2022-07-25T21:39:48.755Z,17.44
2022-07-25T21:42:15.682Z,17.44
2022-07-25T21:44:43.906Z,17.47
2022-07-25T21:47:11.436Z,17.55
2022-07-25T21:49:57.372Z,17.63
2022-07-25T21:52:30.213Z,17.78
2022-07-25T21:55:03.465Z,17.91
2022-07-25T21:57:30.703Z,18.00
2022-07-25T21:59:57.657Z,18.05
2022-07-25T22:02:24.807Z,18.10
2022-07-25T22:04:51.600Z,18.19
2022-07-25T22:07:18.608Z,18.23
2022-07-25T22:09:45.597Z,18.33
2022-07-25T22:12:12.560Z,18.36
2022-07-25T22:14:39.302Z,18.44
2022-07-25T22:17:06.220Z,18.50
2022-07-25T22:19:33.451Z,18.53
2022-07-25T22:22:00.426Z,18.55
2022-07-25T22:24:27.279Z,18.57
2022-07-25T22:26:54.216Z,18.59
2022-07-25T22:29:21.154Z,18.61
2022-07-25T22:31:48.035Z,18.64
2022-07-25T22:34:14.919Z,18.67
2022-07-25T22:36:41.714Z,18.69
2022-07-25T22:39:08.986Z,18.67
2022-07-25T22:41:36.072Z,18.61
2022-07-25T22:44:03.415Z,18.57
2022-07-25T22:46:31.094Z,18.57
2022-07-25T22:48:58.568Z,18.54
2022-07-25T22:51:26.630Z,18.50
2022-07-25T22:53:53.867Z,18.45
2022-07-25T22:56:21.865Z,18.39
2022-07-25T22:58:49.369Z,18.29
2022-07-25T23:01:19.850Z,18.21
2022-07-25T23:03:49.851Z,18.11
2022-07-25T23:06:18.561Z,18.01
2022-07-25T23:08:45.577Z,17.95
2022-07-25T23:11:12.518Z,17.86
2022-07-25T23:13:39.273Z,17.78
2022-07-25T23:16:10.100Z,17.70
2022-07-25T23:18:38.027Z,17.63
2022-07-25T23:21:05.356Z,17.52
2022-07-25T23:23:32.453Z,17.42
2022-07-25T23:25:59.383Z,17.31
2022-07-25T23:28:26.183Z,17.26
2022-07-25T23:30:53.022Z,17.27
2022-07-25T23:33:25.304Z,17.30
2022-07-25T23:35:53.459Z,17.33
2022-07-25T23:38:21.237Z,17.39
2022-07-25T23:40:48.918Z,17.46
2022-07-25T23:43:17.609Z,17.50
2022-07-25T23:46:00.394Z,17.45
2022-07-25T23:48:27.881Z,17.41
2022-07-25T23:50:54.721Z,17.39
2022-07-25T23:53:21.594Z,17.38
2022-07-25T23:55:48.663Z,17.36
2022-07-25T23:58:15.976Z,17.31
